createdAt,value
2023-02-08T00:01:09.052Z,44.99
2023-02-08T00:03:36.892Z,45.33
2023-02-08T00:06:06.218Z,45.71
2023-02-08T00:08:34.526Z,45.17
2023-02-08T00:11:02.412Z,45.49
2023-02-08T00:13:30.707Z,45.82
2023-02-08T00:15:58.166Z,45.55
2023-02-08T00:18:25.568Z,45.30
2023-02-08T00:20:53.088Z,45.38
2023-02-08T00:23:20.339Z,45.21
2023-02-08T00:25:47.567Z,45.39
2023-02-08T00:28:17.887Z,45.01
2023-02-08T00:30:45.801Z,45.66
2023-02-08T00:33:13.280Z,45.39
2023-02-08T00:35:40.567Z,45.30
2023-02-08T00:38:07.836Z,45.13
2023-02-08T00:40:35.365Z,45.29
2023-02-08T00:43:03.008Z,44.94
2023-02-08T00:45:32.557Z,45.45
2023-02-08T00:47:59.973Z,45.25
2023-02-08T00:50:27.312Z,45.75
2023-02-08T00:52:54.468Z,45.71
2023-02-08T00:55:21.729Z,45.71
2023-02-08T00:57:49.240Z,45.66
2023-02-08T01:00:16.991Z,45.68
2023-02-08T01:02:44.557Z,45.64
2023-02-08T01:05:11.891Z,45.72
2023-02-08T01:07:40.027Z,45.83
2023-02-08T01:10:08.871Z,45.75
2023-02-08T01:12:36.247Z,45.73
2023-02-08T01:15:03.838Z,45.62
2023-02-08T01:17:31.195Z,45.76
2023-02-08T01:19:58.543Z,45.81
2023-02-08T01:22:25.716Z,46.02
2023-02-08T01:24:53.044Z,45.82
2023-02-08T01:27:20.291Z,45.69
2023-02-08T01:29:47.411Z,45.70
2023-02-08T01:32:14.584Z,46.18
2023-02-08T01:34:54.258Z,45.79
2023-02-08T01:37:21.472Z,45.73
2023-02-08T01:40:08.058Z,45.97
2023-02-08T01:42:35.726Z,46.16
2023-02-08T01:45:18.206Z,46.01
2023-02-08T01:47:54.709Z,46.18
2023-02-08T01:50:31.109Z,46.85
2023-02-08T01:52:59.541Z,46.28
2023-02-08T01:55:40.986Z,46.78
2023-02-08T01:58:12.424Z,46.78
2023-02-08T02:00:40.300Z,46.20
2023-02-08T02:03:08.497Z,46.41
2023-02-08T02:05:48.335Z,46.30
2023-02-08T02:08:16.158Z,46.74
2023-02-08T02:10:44.244Z,46.24
2023-02-08T02:13:23.263Z,46.22
2023-02-08T02:15:52.136Z,46.63
2023-02-08T02:18:31.953Z,47.21
2023-02-08T02:21:14.192Z,46.70
2023-02-08T02:24:15.577Z,46.30
2023-02-08T02:27:36.788Z,46.13
2023-02-08T02:30:28.385Z,46.21
2023-02-08T02:33:10.187Z,46.10
2023-02-08T02:35:56.503Z,46.11
2023-02-08T02:38:48.072Z,46.06
2023-02-08T02:41:35.881Z,46.54
2023-02-08T02:44:07.344Z,46.75
2023-02-08T02:46:51.069Z,46.78
2023-02-08T02:49:32.877Z,46.88
2023-02-08T02:52:09.713Z,46.69
2023-02-08T02:55:02.877Z,46.54
2023-02-08T02:57:33.636Z,46.75
2023-02-08T03:00:06.140Z,46.97
2023-02-08T03:02:33.400Z,46.72
2023-02-08T03:05:00.578Z,46.97
2023-02-08T03:07:59.675Z,47.05
2023-02-08T03:10:52.701Z,46.73
2023-02-08T03:13:46.401Z,46.89
2023-02-08T03:16:31.733Z,46.91
2023-02-08T03:19:23.084Z,46.84
2023-02-08T03:22:24.770Z,46.00
2023-02-08T03:24:58.950Z,46.85
2023-02-08T03:27:41.542Z,46.55
2023-02-08T03:30:28.044Z,46.69
2023-02-08T03:33:11.804Z,46.77
2023-02-08T03:35:50.960Z,47.11
2023-02-08T03:38:36.126Z,47.16
2023-02-08T03:41:07.955Z,46.56
2023-02-08T03:43:47.932Z,46.78
2023-02-08T03:46:42.882Z,46.91
2023-02-08T03:49:20.546Z,46.98
2023-02-08T03:51:49.516Z,47.20
2023-02-08T03:54:26.563Z,46.98
2023-02-08T03:57:19.980Z,47.25
2023-02-08T04:00:02.400Z,47.35
2023-02-08T04:02:37.727Z,46.85
2023-02-08T04:05:07.631Z,46.89
2023-02-08T04:07:35.072Z,47.27
2023-02-08T04:10:03.980Z,46.83
2023-02-08T04:12:31.259Z,47.00
2023-02-08T04:14:58.636Z,47.20
2023-02-08T04:17:25.888Z,47.36
2023-02-08T04:19:53.031Z,46.94
2023-02-08T04:22:20.123Z,46.86
2023-02-08T04:24:47.411Z,47.12
2023-02-08T04:27:14.778Z,46.83
2023-02-08T04:29:42.022Z,46.84
2023-02-08T04:32:09.272Z,47.14
2023-02-08T04:34:36.517Z,47.04
2023-02-08T04:37:03.895Z,46.34
2023-02-08T04:39:31.233Z,46.80
2023-02-08T04:41:58.434Z,46.58
2023-02-08T04:44:25.665Z,46.71
2023-02-08T04:46:52.977Z,46.59
2023-02-08T04:49:20.566Z,46.95
2023-02-08T04:52:23.419Z,46.94
2023-02-08T04:54:50.621Z,47.09
2023-02-08T04:57:36.371Z,46.82
2023-02-08T05:00:04.598Z,46.81
2023-02-08T05:02:31.923Z,46.61
2023-02-08T05:04:59.137Z,47.18
2023-02-08T05:07:26.319Z,46.97
2023-02-08T05:09:53.501Z,46.83
2023-02-08T05:12:20.776Z,46.96
2023-02-08T05:14:48.388Z,47.17
2023-02-08T05:17:15.843Z,46.87
2023-02-08T05:19:43.496Z,46.99
2023-02-08T05:22:10.673Z,46.73
2023-02-08T05:24:37.922Z,46.89
2023-02-08T05:27:05.085Z,46.97
2023-02-08T05:29:32.663Z,47.07
2023-02-08T05:32:00.426Z,46.93
2023-02-08T05:34:28.393Z,47.29
2023-02-08T05:36:56.081Z,47.06
2023-02-08T05:39:23.684Z,47.04
2023-02-08T05:41:51.229Z,47.23
2023-02-08T05:44:18.848Z,46.90
2023-02-08T05:46:48.654Z,46.77
2023-02-08T05:49:16.429Z,47.02
2023-02-08T05:51:44.178Z,46.95
2023-02-08T05:57:23.976Z,46.91
2023-02-08T05:59:51.493Z,47.01
2023-02-08T06:02:19.165Z,47.12
2023-02-08T06:04:46.775Z,47.25
2023-02-08T06:07:14.401Z,46.85
2023-02-08T06:09:42.028Z,47.35
2023-02-08T06:12:19.316Z,47.05
2023-02-08T06:14:48.114Z,46.97
2023-02-08T06:21:04.084Z,47.12
2023-02-08T06:23:32.187Z,46.69
2023-02-08T06:25:59.606Z,46.87
2023-02-08T06:28:26.955Z,47.24
2023-02-08T06:30:54.223Z,47.29
2023-02-08T06:33:21.497Z,47.33
2023-02-08T06:35:52.431Z,47.62
2023-02-08T06:38:20.674Z,47.28
2023-02-08T06:40:49.678Z,47.41
2023-02-08T06:43:17.477Z,47.57
2023-02-08T06:45:46.622Z,47.56
2023-02-08T06:48:14.556Z,47.50
2023-02-08T06:50:59.233Z,47.08
2023-02-08T06:53:28.648Z,47.07
2023-02-08T06:55:56.064Z,47.22
2023-02-08T06:58:25.189Z,47.51
2023-02-08T07:00:52.617Z,47.73
2023-02-08T07:03:19.958Z,47.55
2023-02-08T07:06:03.491Z,47.74
2023-02-08T07:08:35.161Z,47.79
2023-02-08T07:11:11.791Z,47.72
2023-02-08T07:13:39.762Z,48.14
2023-02-08T07:16:09.774Z,48.34
2023-02-08T07:18:37.431Z,47.89
2023-02-08T07:21:05.268Z,48.14
2023-02-08T07:23:33.072Z,48.17
2023-02-08T07:26:04.143Z,48.43
2023-02-08T07:28:31.657Z,48.26
2023-02-08T07:30:59.300Z,48.46
2023-02-08T07:33:26.851Z,48.52
2023-02-08T07:35:54.077Z,48.38
2023-02-08T07:38:45.368Z,47.98
2023-02-08T07:41:18.694Z,47.60
2023-02-08T07:43:45.964Z,47.17
2023-02-08T07:46:22.261Z,47.31
2023-02-08T07:49:43.990Z,47.70
2023-02-08T07:52:11.265Z,47.30
2023-02-08T07:54:38.451Z,47.18
2023-02-08T07:57:05.666Z,47.43
2023-02-08T07:59:32.932Z,47.12
2023-02-08T08:02:00.246Z,47.88
2023-02-08T08:04:27.728Z,47.44
2023-02-08T08:06:54.965Z,47.25
2023-02-08T08:09:22.191Z,47.66
2023-02-08T08:11:49.364Z,47.36
2023-02-08T08:14:16.540Z,47.45
2023-02-08T08:16:43.715Z,47.40
2023-02-08T08:19:10.944Z,47.68
2023-02-08T08:21:38.324Z,47.63
2023-02-08T08:24:05.896Z,47.25
2023-02-08T08:26:33.405Z,47.07
2023-02-08T08:29:01.018Z,46.89
2023-02-08T08:31:28.678Z,47.18
2023-02-08T08:33:56.207Z,46.88
2023-02-08T08:36:23.612Z,46.45
2023-02-08T08:38:52.112Z,46.55
2023-02-08T08:41:19.425Z,46.60
2023-02-08T08:43:46.800Z,46.73
2023-02-08T08:46:14.672Z,45.97
2023-02-08T08:48:41.982Z,45.73
2023-02-08T08:51:09.445Z,45.50
2023-02-08T08:53:37.045Z,45.96
2023-02-08T08:56:05.331Z,45.79
2023-02-08T08:58:33.210Z,46.30
2023-02-08T09:01:01.403Z,46.40
2023-02-08T09:03:29.804Z,45.31
2023-02-08T09:05:57.440Z,45.45
2023-02-08T09:08:24.632Z,45.37
2023-02-08T09:10:52.219Z,44.96
2023-02-08T09:13:19.560Z,44.84
2023-02-08T09:15:48.390Z,44.56
2023-02-08T09:18:16.480Z,43.91
2023-02-08T09:20:44.045Z,44.63
2023-02-08T09:23:12.212Z,43.95
2023-02-08T09:25:39.566Z,42.94
2023-02-08T09:28:07.164Z,42.79
2023-02-08T09:30:36.033Z,42.83
2023-02-08T09:33:03.385Z,43.20
2023-02-08T09:35:30.838Z,43.11
2023-02-08T09:37:58.581Z,42.69
2023-02-08T09:40:38.106Z,42.40
2023-02-08T09:43:55.827Z,41.88
2023-02-08T09:46:28.231Z,41.93
2023-02-08T09:49:01.606Z,41.43
2023-02-08T09:51:51.251Z,40.84
2023-02-08T09:54:41.673Z,41.61
2023-02-08T09:57:26.492Z,42.00
2023-02-08T10:00:11.866Z,42.71
2023-02-08T10:02:43.359Z,42.26
2023-02-08T10:05:25.989Z,42.43
2023-02-08T10:08:01.889Z,42.51
2023-02-08T10:11:13.967Z,42.14
2023-02-08T10:14:35.191Z,40.66
2023-02-08T10:17:52.524Z,40.47
2023-02-08T10:20:51.717Z,40.18
2023-02-08T10:23:37.072Z,39.83
2023-02-08T10:26:18.211Z,39.53
2023-02-08T10:29:19.892Z,39.79
2023-02-08T10:32:27.448Z,39.52
2023-02-08T10:35:13.490Z,39.74
2023-02-08T10:37:44.716Z,40.71
2023-02-08T10:40:37.702Z,39.06
2023-02-08T10:43:33.895Z,38.76
2023-02-08T10:46:32.600Z,38.10
2023-02-08T10:49:22.798Z,38.03
2023-02-08T10:51:50.233Z,37.90
2023-02-08T10:54:17.613Z,37.29
2023-02-08T10:56:50.037Z,37.24
2023-02-08T10:59:22.849Z,36.98
2023-02-08T11:01:51.290Z,36.73
2023-02-08T11:04:19.667Z,36.11
2023-02-08T11:06:49.488Z,36.14
2023-02-08T11:09:30.506Z,36.11
2023-02-08T11:12:02.380Z,36.00
2023-02-08T11:14:53.370Z,36.42
2023-02-08T11:17:31.194Z,36.03
2023-02-08T11:20:00.100Z,36.10
2023-02-08T11:22:30.306Z,35.73
2023-02-08T11:25:05.689Z,36.37
2023-02-08T11:27:37.955Z,36.92
2023-02-08T11:30:14.383Z,36.54
2023-02-08T11:32:43.952Z,36.63
2023-02-08T11:35:23.737Z,37.11
2023-02-08T11:37:55.227Z,36.77
2023-02-08T11:40:36.415Z,36.00
2023-02-08T11:43:05.252Z,37.24
2023-02-08T11:45:36.138Z,36.15
2023-02-08T11:48:05.405Z,35.65
2023-02-08T11:50:37.646Z,35.87
2023-02-08T11:53:20.875Z,35.70
2023-02-08T11:56:17.436Z,34.28
2023-02-08T11:59:18.944Z,32.89
2023-02-08T12:01:46.686Z,30.71
2023-02-08T12:04:17.975Z,28.56
2023-02-08T12:07:17.709Z,26.65
2023-02-08T12:10:33.336Z,23.95
2023-02-08T12:13:14.317Z,23.67
2023-02-08T12:16:27.508Z,20.99
2023-02-08T12:19:22.149Z,19.18
2023-02-08T12:22:05.107Z,19.45
2023-02-08T12:24:54.590Z,19.03
2023-02-08T12:27:36.693Z,18.81
2023-02-08T12:30:19.562Z,19.10
2023-02-08T12:33:11.241Z,18.33
2023-02-08T12:36:03.671Z,19.66
2023-02-08T12:39:19.695Z,19.78
2023-02-08T12:42:26.673Z,20.19
2023-02-08T12:45:37.466Z,20.51
2023-02-08T12:48:25.184Z,20.66
2023-02-08T12:51:18.836Z,20.65
2023-02-08T12:54:03.574Z,22.47
2023-02-08T12:56:39.428Z,21.87
2023-02-08T12:59:13.878Z,21.35
2023-02-08T13:01:48.481Z,22.13
2023-02-08T13:04:28.164Z,22.00
2023-02-08T13:07:11.640Z,22.72
2023-02-08T13:10:00.417Z,22.78
2023-02-08T13:12:36.113Z,22.48
2023-02-08T13:15:30.268Z,22.76
2023-02-08T13:18:02.843Z,23.80
2023-02-08T13:20:49.920Z,24.49
2023-02-08T13:23:27.073Z,25.67
2023-02-08T13:26:37.915Z,27.27
2023-02-08T13:29:05.694Z,28.01
2023-02-08T13:31:41.134Z,29.18
2023-02-08T13:34:37.701Z,30.05
2023-02-08T13:37:25.491Z,31.17
2023-02-08T13:40:29.681Z,32.00
2023-02-08T13:43:08.626Z,32.71
2023-02-08T13:45:44.106Z,32.76
2023-02-08T13:48:16.840Z,33.13
2023-02-08T13:50:46.880Z,33.34
2023-02-08T13:53:16.993Z,33.75
2023-02-08T13:55:57.892Z,34.35
2023-02-08T13:58:46.387Z,34.10
2023-02-08T14:01:22.675Z,34.95
2023-02-08T14:04:08.264Z,35.02
2023-02-08T14:06:55.958Z,35.48
2023-02-08T14:09:43.845Z,35.53
2023-02-08T14:12:41.198Z,35.66
2023-02-08T14:15:35.157Z,35.93
2023-02-08T14:18:03.622Z,35.78
2023-02-08T14:20:37.870Z,35.99
2023-02-08T14:23:23.240Z,36.43
2023-02-08T14:25:55.617Z,36.74
2023-02-08T14:28:36.965Z,36.43
2023-02-08T14:31:10.224Z,36.11
2023-02-08T14:33:50.005Z,36.61
2023-02-08T14:36:33.496Z,36.65
2023-02-08T14:39:23.679Z,36.77
2023-02-08T14:41:55.147Z,37.51
2023-02-08T14:44:40.616Z,37.53
2023-02-08T14:47:25.908Z,37.93
2023-02-08T14:50:05.929Z,38.13
2023-02-08T14:52:35.479Z,38.44
2023-02-08T14:55:18.416Z,38.40
2023-02-08T14:57:46.403Z,38.81
2023-02-08T15:00:25.478Z,38.58
2023-02-08T15:02:56.096Z,38.64
2023-02-08T15:05:40.529Z,38.56
2023-02-08T15:08:07.974Z,38.77
2023-02-08T15:10:41.550Z,38.81
2023-02-08T15:13:23.905Z,38.99
2023-02-08T15:15:55.924Z,39.76
2023-02-08T15:18:30.528Z,40.15
2023-02-08T15:21:04.373Z,41.04
2023-02-08T15:23:31.936Z,41.22
2023-02-08T15:26:06.720Z,41.25
2023-02-08T15:28:37.245Z,41.33
2023-02-08T15:31:09.874Z,41.47
2023-02-08T15:33:41.988Z,41.35
2023-02-08T15:36:21.502Z,41.73
2023-02-08T15:38:49.381Z,41.73
2023-02-08T15:41:32.779Z,41.54
2023-02-08T15:44:18.917Z,40.73
2023-02-08T15:46:48.909Z,40.59
2023-02-08T15:49:30.816Z,40.41
2023-02-08T15:51:59.826Z,40.80
2023-02-08T15:54:27.769Z,40.04
2023-02-08T15:57:09.515Z,40.21
2023-02-08T15:59:40.318Z,40.15
2023-02-08T16:02:24.763Z,40.64
2023-02-08T16:04:52.416Z,40.59
2023-02-08T16:07:33.808Z,40.84
2023-02-08T16:10:01.686Z,41.34
2023-02-08T16:12:29.597Z,41.40
2023-02-08T16:14:57.731Z,40.41
2023-02-08T16:17:44.558Z,40.31
2023-02-08T16:20:34.150Z,40.43
2023-02-08T16:23:33.686Z,40.77
2023-02-08T16:26:55.331Z,40.35
2023-02-08T16:29:35.103Z,40.53
2023-02-08T16:32:27.117Z,40.59
2023-02-08T16:34:54.894Z,40.84
2023-02-08T16:37:34.066Z,40.92
2023-02-08T16:40:39.644Z,40.99
2023-02-08T16:43:30.244Z,40.63
2023-02-08T16:46:21.958Z,41.36
2023-02-08T16:48:55.871Z,40.85
2023-02-08T16:51:34.245Z,40.79
2023-02-08T16:54:07.084Z,41.32
2023-02-08T16:56:39.200Z,41.08
2023-02-08T16:59:07.187Z,41.34
2023-02-08T17:01:42.665Z,40.89
2023-02-08T17:04:10.366Z,40.55
2023-02-08T17:06:41.765Z,40.84
2023-02-08T17:09:13.053Z,40.75
2023-02-08T17:11:41.573Z,41.21
2023-02-08T17:14:09.374Z,41.60
2023-02-08T17:16:38.204Z,41.38
2023-02-08T17:19:06.290Z,41.36
2023-02-08T17:21:34.137Z,41.01
2023-02-08T17:24:01.370Z,41.27
2023-02-08T17:26:34.770Z,41.38
2023-02-08T17:29:02.036Z,41.51
2023-02-08T17:31:32.666Z,41.39
2023-02-08T17:34:00.206Z,41.96
2023-02-08T17:36:29.820Z,42.45
2023-02-08T17:38:57.565Z,42.63
2023-02-08T17:41:24.995Z,42.28
2023-02-08T17:43:54.468Z,42.71
2023-02-08T17:46:28.977Z,42.68
2023-02-08T17:48:58.286Z,42.14
2023-02-08T17:51:25.986Z,42.23
2023-02-08T17:53:53.650Z,42.10
2023-02-08T17:56:24.570Z,42.10
2023-02-08T17:58:53.745Z,42.16
2023-02-08T18:01:26.116Z,42.07
2023-02-08T18:03:54.303Z,42.39
2023-02-08T18:06:22.620Z,42.31
2023-02-08T18:08:49.987Z,42.17
2023-02-08T18:11:20.121Z,42.23
2023-02-08T18:13:55.271Z,42.06
2023-02-08T18:16:27.505Z,42.56
2023-02-08T18:18:58.116Z,42.20
2023-02-08T18:21:26.161Z,42.13
2023-02-08T18:23:53.774Z,43.65
2023-02-08T18:26:25.302Z,43.26
2023-02-08T18:28:53.080Z,43.05
2023-02-08T18:31:21.227Z,43.18
2023-02-08T18:33:50.753Z,42.94
2023-02-08T18:36:21.087Z,42.82
2023-02-08T18:38:52.423Z,43.20
2023-02-08T18:41:25.427Z,43.21
2023-02-08T18:43:54.562Z,43.48
2023-02-08T18:46:24.846Z,43.10
2023-02-08T18:48:53.351Z,42.75
2023-02-08T18:51:23.389Z,42.62
2023-02-08T18:53:55.196Z,43.46
2023-02-08T18:56:26.776Z,43.19
2023-02-08T18:58:58.264Z,42.96
2023-02-08T19:01:25.844Z,43.27
2023-02-08T19:03:54.505Z,43.26
2023-02-08T19:06:26.074Z,43.07
2023-02-08T19:08:56.508Z,43.00
2023-02-08T19:11:31.398Z,42.97
2023-02-08T19:14:02.600Z,43.12
2023-02-08T19:16:33.174Z,42.95
2023-02-08T19:19:00.941Z,42.98
2023-02-08T19:21:29.938Z,42.98
2023-02-08T19:23:58.342Z,43.38
2023-02-08T19:26:32.618Z,43.38
2023-02-08T19:29:03.065Z,43.03
2023-02-08T19:31:31.150Z,43.14
2023-02-08T19:34:01.098Z,43.40
2023-02-08T19:36:46.501Z,43.34
2023-02-08T19:39:18.994Z,43.10
2023-02-08T19:41:47.666Z,42.61
2023-02-08T19:44:18.871Z,42.64
2023-02-08T19:46:55.641Z,42.44
2023-02-08T19:49:24.437Z,43.16
2023-02-08T19:51:52.661Z,43.07
2023-02-08T19:54:21.504Z,43.31
2023-02-08T19:56:49.126Z,42.84
2023-02-08T19:59:24.406Z,43.04
2023-02-08T20:01:53.037Z,43.34
2023-02-08T20:04:21.739Z,43.76
2023-02-08T20:06:53.083Z,43.26
2023-02-08T20:09:21.509Z,43.73
2023-02-08T20:11:57.877Z,43.61
2023-02-08T20:14:28.451Z,43.62
2023-02-08T20:16:56.691Z,43.83
2023-02-08T20:19:24.825Z,43.49
2023-02-08T20:21:53.003Z,43.48
2023-02-08T20:24:20.552Z,43.54
2023-02-08T20:26:49.205Z,44.05
2023-02-08T20:29:17.417Z,43.74
2023-02-08T20:31:47.955Z,43.42
2023-02-08T20:34:17.870Z,43.46
2023-02-08T20:36:57.489Z,43.62
2023-02-08T20:39:28.996Z,43.67
2023-02-08T20:41:56.149Z,43.68
2023-02-08T20:44:23.362Z,43.85
2023-02-08T20:46:50.666Z,44.18
2023-02-08T20:49:18.022Z,44.12
2023-02-08T20:51:45.249Z,43.13
2023-02-08T20:54:12.591Z,43.52
2023-02-08T20:56:40.043Z,43.74
2023-02-08T20:59:12.029Z,44.38
2023-02-08T21:01:39.500Z,43.97
2023-02-08T21:04:06.974Z,43.87
2023-02-08T21:06:37.249Z,43.48
2023-02-08T21:09:13.038Z,43.75
2023-02-08T21:11:40.830Z,44.07
2023-02-08T21:14:10.486Z,43.70
2023-02-08T21:16:38.475Z,44.14
2023-02-08T21:19:05.807Z,43.89
2023-02-08T21:21:33.147Z,44.16
2023-02-08T21:24:00.365Z,44.17
2023-02-08T21:26:28.279Z,44.43
2023-02-08T21:28:57.280Z,44.26
2023-02-08T21:31:25.583Z,43.57
2023-02-08T21:33:53.614Z,43.68
2023-02-08T21:36:24.621Z,44.09
2023-02-08T21:38:52.066Z,43.63
2023-02-08T21:41:24.747Z,43.74
2023-02-08T21:43:56.401Z,44.05
2023-02-08T21:46:23.790Z,43.92
2023-02-08T21:48:52.187Z,43.68
2023-02-08T21:51:21.226Z,44.46
2023-02-08T21:53:48.444Z,44.05
2023-02-08T21:56:15.916Z,44.45
2023-02-08T21:58:43.494Z,44.46
2023-02-08T22:01:10.852Z,44.38
2023-02-08T22:03:38.122Z,43.94
2023-02-08T22:06:05.687Z,44.33
2023-02-08T22:08:32.895Z,44.33
2023-02-08T22:11:00.507Z,44.18
2023-02-08T22:13:28.086Z,44.07
2023-02-08T22:15:55.307Z,43.66
2023-02-08T22:18:22.854Z,44.18
2023-02-08T22:20:54.173Z,44.09
2023-02-08T22:23:22.007Z,44.61
2023-02-08T22:25:49.213Z,44.37
2023-02-08T22:28:16.534Z,44.09
2023-02-08T22:30:48.746Z,44.80
2023-02-08T22:33:16.169Z,43.99
2023-02-08T22:35:43.349Z,44.16
2023-02-08T22:38:10.585Z,44.61
2023-02-08T22:40:40.929Z,44.57
2023-02-08T22:43:08.181Z,44.33
2023-02-08T22:45:35.537Z,43.83
2023-02-08T22:48:02.922Z,43.93
2023-02-08T22:50:30.573Z,44.04
2023-02-08T22:52:57.817Z,44.39
2023-02-08T22:55:25.043Z,44.24
2023-02-08T22:57:52.294Z,44.69
2023-02-08T23:00:19.508Z,44.89
2023-02-08T23:02:46.774Z,44.58
2023-02-08T23:05:14.104Z,44.90
2023-02-08T23:07:41.436Z,45.12
2023-02-08T23:10:10.209Z,44.91
2023-02-08T23:12:37.504Z,44.52
2023-02-08T23:15:05.214Z,44.75
2023-02-08T23:17:32.486Z,44.74
2023-02-08T23:20:00.008Z,44.79
2023-02-08T23:22:27.289Z,44.70
2023-02-08T23:24:54.523Z,45.02
2023-02-08T23:27:21.682Z,45.43
2023-02-08T23:29:49.094Z,45.06
2023-02-08T23:32:16.380Z,45.17
2023-02-08T23:34:43.598Z,44.72
2023-02-08T23:37:10.837Z,44.86
2023-02-08T23:39:38.151Z,44.86
2023-02-08T23:42:05.482Z,44.59
2023-02-08T23:44:32.635Z,44.21
2023-02-08T23:47:00.494Z,44.95
2023-02-08T23:49:27.724Z,44.99
2023-02-08T23:51:54.957Z,44.90
2023-02-08T23:54:22.360Z,44.81
2023-02-08T23:56:49.564Z,44.83
2023-02-08T23:59:16.751Z,44.87
